createdAt,value
2017-11-23T00:00:32.645Z,97.12
2017-11-23T00:01:32.568Z,97.23
2017-11-23T00:02:32.552Z,97.21
2017-11-23T00:03:32.538Z,97.28
2017-11-23T00:04:32.541Z,97.21
2017-11-23T00:05:32.569Z,97.34
2017-11-23T00:06:32.592Z,97.34
2017-11-23T00:07:32.553Z,97.61
2017-11-23T00:08:32.647Z,97.91
2017-11-23T00:09:32.665Z,97.99
2017-11-23T00:10:32.550Z,98.10
2017-11-23T00:11:32.547Z,98.10
2017-11-23T00:12:32.665Z,98.40
2017-11-23T00:13:32.623Z,98.26
2017-11-23T00:14:32.555Z,98.02
2017-11-23T00:15:32.547Z,97.58
2017-11-23T00:16:32.624Z,97.28
2017-11-23T00:17:32.693Z,96.80
2017-11-23T00:18:32.628Z,96.50
2017-11-23T00:19:32.695Z,95.75
2017-11-23T00:20:32.692Z,95.18
2017-11-23T00:21:32.695Z,94.93
2017-11-23T00:22:32.645Z,94.86
2017-11-23T00:23:32.695Z,94.56
2017-11-23T00:24:32.718Z,94.48
2017-11-23T00:25:32.696Z,94.45
2017-11-23T00:26:32.629Z,94.37
2017-11-23T00:27:32.632Z,94.29
2017-11-23T00:28:32.699Z,94.29
2017-11-23T00:29:32.698Z,94.48
2017-11-23T00:30:32.637Z,94.34
2017-11-23T00:31:32.700Z,94.31
2017-11-23T00:32:32.642Z,94.29
2017-11-23T00:33:32.637Z,94.10
2017-11-23T00:34:32.642Z,93.99
2017-11-23T00:35:32.702Z,93.85
2017-11-23T00:36:32.637Z,93.89
2017-11-23T00:37:32.705Z,93.67
2017-11-23T00:38:32.640Z,92.95
2017-11-23T00:39:32.703Z,92.43
2017-11-23T00:40:32.638Z,92.32
2017-11-23T00:41:32.705Z,91.90
2017-11-23T00:42:32.641Z,91.84
2017-11-23T00:43:32.706Z,91.38
2017-11-23T00:44:32.639Z,91.20
2017-11-23T00:45:32.708Z,91.20
2017-11-23T00:46:32.709Z,91.25
2017-11-23T00:47:32.641Z,91.11
2017-11-23T00:48:32.599Z,91.17
2017-11-23T00:49:32.640Z,91.25
2017-11-23T00:50:32.714Z,91.38
2017-11-23T00:51:32.710Z,90.90
2017-11-23T00:52:32.658Z,90.82
2017-11-23T00:53:32.723Z,90.36
2017-11-23T00:54:32.648Z,90.36
2017-11-23T00:55:32.715Z,90.05
2017-11-23T00:56:32.688Z,89.70
2017-11-23T00:57:32.717Z,89.54
2017-11-23T00:58:32.651Z,89.16
2017-11-23T00:59:32.727Z,88.95
2017-11-23T01:00:32.655Z,88.95
2017-11-23T01:01:32.717Z,88.31
2017-11-23T01:02:32.657Z,88.25
2017-11-23T01:03:32.718Z,87.96
2017-11-23T01:04:32.654Z,88.01
2017-11-23T01:05:32.723Z,88.17
2017-11-23T01:06:32.705Z,87.93
2017-11-23T01:07:32.651Z,87.96
2017-11-23T01:08:32.621Z,87.48
2017-11-23T01:09:32.712Z,87.45
2017-11-23T01:10:32.708Z,87.45
2017-11-23T01:11:32.670Z,87.43
2017-11-23T01:12:32.623Z,87.45
2017-11-23T01:13:32.610Z,87.32
2017-11-23T01:14:32.613Z,86.91
2017-11-23T01:15:32.637Z,86.09
2017-11-23T01:16:32.660Z,85.83
2017-11-23T01:17:32.729Z,85.35
2017-11-23T01:18:32.659Z,85.40
2017-11-23T01:19:32.728Z,85.56
2017-11-23T01:20:32.707Z,85.64
2017-11-23T01:21:32.663Z,85.75
2017-11-23T01:22:32.737Z,85.69
2017-11-23T01:23:32.664Z,85.96
2017-11-23T01:24:32.731Z,85.93
2017-11-23T01:25:32.668Z,86.25
2017-11-23T01:26:32.665Z,86.63
2017-11-23T01:27:32.720Z,86.81
2017-11-23T01:28:32.620Z,86.94
2017-11-23T01:29:32.660Z,87.05
2017-11-23T01:30:32.664Z,87.32
2017-11-23T01:31:32.659Z,87.51
2017-11-23T01:32:32.645Z,87.72
2017-11-23T01:33:32.705Z,87.93
2017-11-23T01:34:32.645Z,87.96
2017-11-23T01:35:32.724Z,88.12
2017-11-23T01:36:32.695Z,88.50
2017-11-23T01:37:32.741Z,88.73
2017-11-23T01:38:32.677Z,89.03
2017-11-23T01:39:32.739Z,89.40
2017-11-23T01:40:32.674Z,89.80
2017-11-23T01:41:32.744Z,90.05
2017-11-23T01:42:32.678Z,90.23
2017-11-23T01:43:32.741Z,90.47
2017-11-23T01:44:32.744Z,90.61
2017-11-23T01:45:32.743Z,90.82
2017-11-23T01:46:32.743Z,90.93
2017-11-23T01:47:32.680Z,90.96
2017-11-23T01:48:32.744Z,91.03
2017-11-23T01:49:32.677Z,91.01
2017-11-23T01:50:32.747Z,90.71
2017-11-23T01:51:32.676Z,90.61
2017-11-23T01:52:32.749Z,90.31
2017-11-23T01:53:32.751Z,90.18
2017-11-23T01:54:32.749Z,89.80
2017-11-23T01:55:32.686Z,89.59
2017-11-23T01:56:32.755Z,89.29
2017-11-23T01:57:32.789Z,89.27
2017-11-23T01:58:32.681Z,89.32
2017-11-23T01:59:32.753Z,89.45
2017-11-23T02:00:32.691Z,89.45
2017-11-23T02:01:32.755Z,89.37
2017-11-23T02:02:32.692Z,89.54
2017-11-23T02:03:32.755Z,89.59
2017-11-23T02:04:32.757Z,89.75
2017-11-23T02:05:32.762Z,89.86
2017-11-23T02:06:32.740Z,89.67
2017-11-23T02:07:32.744Z,89.67
2017-11-23T02:08:32.712Z,89.75
2017-11-23T02:09:32.688Z,89.80
2017-11-23T02:10:32.663Z,90.07
2017-11-23T02:11:32.651Z,90.63
2017-11-23T02:12:32.750Z,90.98
2017-11-23T02:13:32.663Z,90.82
2017-11-23T02:14:32.628Z,90.77
2017-11-23T02:15:32.629Z,90.96
2017-11-23T02:16:32.750Z,91.07
2017-11-23T02:17:32.713Z,90.69
2017-11-23T02:18:32.749Z,90.50
2017-11-23T02:19:32.667Z,89.72
2017-11-23T02:20:32.638Z,89.48
2017-11-23T02:21:32.637Z,88.76
2017-11-23T02:22:32.737Z,88.39
2017-11-23T02:23:32.756Z,87.77
2017-11-23T02:24:32.675Z,87.59
2017-11-23T02:25:32.655Z,86.84
2017-11-23T02:26:32.778Z,86.65
2017-11-23T02:27:32.757Z,86.36
2017-11-23T02:28:32.737Z,86.22
2017-11-23T02:29:32.679Z,86.20
2017-11-23T02:30:32.637Z,86.25
2017-11-23T02:31:32.727Z,86.41
2017-11-23T02:32:32.741Z,86.36
2017-11-23T02:33:32.680Z,86.38
2017-11-23T02:34:32.760Z,86.87
2017-11-23T02:35:32.758Z,87.18
2017-11-23T02:36:32.776Z,87.51
2017-11-23T02:37:32.706Z,88.01
2017-11-23T02:38:32.779Z,88.09
2017-11-23T02:39:32.780Z,88.44
2017-11-23T02:40:32.749Z,88.01
2017-11-23T02:41:32.800Z,88.15
2017-11-23T02:42:32.708Z,88.54
2017-11-23T02:43:32.780Z,89.16
2017-11-23T02:44:32.721Z,89.94
2017-11-23T02:45:32.781Z,90.50
2017-11-23T02:46:32.627Z,91.09
2017-11-23T02:47:32.685Z,91.63
2017-11-23T02:48:32.731Z,92.22
2017-11-23T02:49:32.683Z,92.73
2017-11-23T02:50:32.631Z,93.02
2017-11-23T02:51:32.733Z,92.99
2017-11-23T02:52:32.737Z,92.95
2017-11-23T02:53:32.709Z,92.76
2017-11-23T02:54:32.683Z,92.59
2017-11-23T02:55:32.640Z,92.51
2017-11-23T02:56:32.789Z,92.59
2017-11-23T02:57:32.787Z,92.59
2017-11-23T02:58:32.789Z,92.59
2017-11-23T02:59:32.719Z,92.70
2017-11-23T03:00:32.791Z,92.97
2017-11-23T03:01:32.725Z,93.32
2017-11-23T03:02:32.793Z,93.72
2017-11-23T03:03:32.727Z,93.94
2017-11-23T03:04:32.794Z,94.37
2017-11-23T03:05:32.764Z,94.83
2017-11-23T03:06:32.726Z,95.20
2017-11-23T03:07:32.729Z,95.47
2017-11-23T03:08:32.798Z,95.61
2017-11-23T03:09:32.786Z,95.69
2017-11-23T03:10:32.742Z,95.96
2017-11-23T03:11:32.785Z,96.02
2017-11-23T03:12:32.682Z,96.13
2017-11-23T03:13:32.748Z,96.28
2017-11-23T03:14:32.683Z,96.04
2017-11-23T03:15:32.738Z,95.69
2017-11-23T03:16:32.823Z,95.28
2017-11-23T03:17:32.733Z,94.80
2017-11-23T03:18:32.737Z,94.02
2017-11-23T03:19:32.805Z,92.99
2017-11-23T03:20:32.742Z,92.24
2017-11-23T03:21:32.803Z,91.47
2017-11-23T03:22:32.736Z,91.01
2017-11-23T03:23:32.804Z,90.80
2017-11-23T03:24:32.744Z,90.47
2017-11-23T03:25:32.806Z,89.94
2017-11-23T03:26:32.804Z,89.67
2017-11-23T03:27:32.732Z,89.64
2017-11-23T03:28:32.737Z,89.59
2017-11-23T03:29:32.805Z,89.54
2017-11-23T03:30:32.746Z,89.40
2017-11-23T03:31:32.807Z,89.27
2017-11-23T03:32:32.739Z,89.03
2017-11-23T03:33:32.809Z,88.84
2017-11-23T03:34:32.753Z,88.68
2017-11-23T03:35:32.810Z,88.36
2017-11-23T03:36:32.740Z,88.39
2017-11-23T03:37:32.717Z,88.15
2017-11-23T03:38:32.739Z,87.93
2017-11-23T03:39:32.736Z,87.88
2017-11-23T03:40:32.762Z,87.72
2017-11-23T03:41:32.722Z,87.40
2017-11-23T03:42:32.764Z,87.37
2017-11-23T03:43:32.705Z,87.29
2017-11-23T03:44:32.677Z,87.18
2017-11-23T03:45:32.744Z,86.97
2017-11-23T03:46:32.678Z,86.91
2017-11-23T03:47:32.817Z,86.87
2017-11-23T03:48:32.825Z,86.79
2017-11-23T03:49:32.755Z,86.52
2017-11-23T03:50:32.860Z,86.84
2017-11-23T03:51:32.823Z,86.73
2017-11-23T03:52:32.753Z,86.76
2017-11-23T03:53:32.821Z,86.63
2017-11-23T03:54:32.778Z,86.79
2017-11-23T03:55:32.821Z,87.00
2017-11-23T03:56:32.824Z,87.05
2017-11-23T03:57:32.691Z,87.26
2017-11-23T03:58:32.725Z,87.43
2017-11-23T03:59:32.823Z,87.59
2017-11-23T04:00:32.813Z,87.80
2017-11-23T04:01:32.709Z,87.72
2017-11-23T04:02:32.777Z,87.69
2017-11-23T04:03:32.729Z,87.56
2017-11-23T04:04:32.818Z,87.53
2017-11-23T04:05:32.756Z,87.48
2017-11-23T04:06:32.734Z,87.32
2017-11-23T04:07:32.958Z,87.32
2017-11-23T04:08:32.771Z,87.45
2017-11-23T04:09:32.800Z,87.51
2017-11-23T04:10:32.712Z,87.16
2017-11-23T04:11:32.766Z,87.40
2017-11-23T04:12:32.823Z,87.80
2017-11-23T04:13:32.817Z,87.96
2017-11-23T04:14:32.697Z,88.20
2017-11-23T04:15:32.784Z,88.04
2017-11-23T04:16:32.824Z,87.85
2017-11-23T04:17:32.685Z,87.69
2017-11-23T04:18:32.736Z,87.51
2017-11-23T04:19:32.732Z,87.59
2017-11-23T04:20:32.688Z,87.51
2017-11-23T04:21:32.734Z,87.61
2017-11-23T04:22:32.734Z,87.88
2017-11-23T04:23:32.692Z,88.17
2017-11-23T04:24:32.738Z,88.12
2017-11-23T04:25:32.786Z,88.09
2017-11-23T04:26:32.790Z,88.25
2017-11-23T04:27:32.840Z,88.31
2017-11-23T04:28:32.846Z,88.28
2017-11-23T04:29:32.842Z,88.46
2017-11-23T04:30:32.773Z,88.36
2017-11-23T04:31:32.804Z,88.54
2017-11-23T04:32:32.773Z,88.36
2017-11-23T04:33:32.873Z,88.15
2017-11-23T04:34:32.780Z,88.09
2017-11-23T04:35:32.779Z,88.15
2017-11-23T04:36:32.780Z,88.23
2017-11-23T04:37:32.847Z,88.57
2017-11-23T04:38:32.802Z,88.68
2017-11-23T04:39:32.849Z,88.87
2017-11-23T04:40:32.794Z,89.06
2017-11-23T04:41:32.785Z,89.40
2017-11-23T04:42:32.865Z,89.40
2017-11-23T04:43:32.785Z,89.19
2017-11-23T04:44:32.851Z,88.92
2017-11-23T04:45:32.785Z,88.79
2017-11-23T04:46:32.853Z,88.73
2017-11-23T04:47:32.746Z,88.97
2017-11-23T04:48:32.778Z,89.40
2017-11-23T04:49:32.786Z,89.64
2017-11-23T04:50:32.779Z,89.97
2017-11-23T04:51:32.781Z,89.80
2017-11-23T04:52:32.813Z,89.99
2017-11-23T04:53:32.747Z,90.07
2017-11-23T04:54:32.712Z,90.31
2017-11-23T04:55:32.808Z,90.50
2017-11-23T04:56:32.840Z,90.45
2017-11-23T04:57:32.810Z,90.50
2017-11-23T04:58:32.721Z,90.63
2017-11-23T04:59:32.850Z,90.63
2017-11-23T05:00:32.861Z,90.23
2017-11-23T05:01:32.850Z,90.20
2017-11-23T05:02:32.859Z,89.67
2017-11-23T05:03:32.861Z,89.11
2017-11-23T05:04:32.832Z,88.97
2017-11-23T05:05:32.812Z,88.95
2017-11-23T05:06:32.858Z,88.97
2017-11-23T05:07:32.804Z,89.11
2017-11-23T05:08:32.769Z,89.27
2017-11-23T05:09:32.771Z,89.03
2017-11-23T05:10:32.859Z,88.95
2017-11-23T05:11:32.857Z,89.03
2017-11-23T05:12:32.769Z,89.03
2017-11-23T05:13:32.841Z,88.76
2017-11-23T05:14:32.815Z,88.76
2017-11-23T05:15:32.859Z,88.65
2017-11-23T05:16:32.860Z,88.33
2017-11-23T05:17:32.808Z,88.31
2017-11-23T05:18:32.758Z,88.33
2017-11-23T05:19:32.835Z,88.33
2017-11-23T05:20:32.853Z,88.31
2017-11-23T05:21:32.805Z,88.41
2017-11-23T05:22:32.761Z,88.60
2017-11-23T05:23:32.761Z,88.39
2017-11-23T05:24:32.802Z,88.60
2017-11-23T05:25:32.830Z,88.36
2017-11-23T05:26:32.748Z,87.96
2017-11-23T05:27:32.806Z,87.59
2017-11-23T05:28:32.877Z,86.91
2017-11-23T05:29:32.811Z,86.36
2017-11-23T05:30:32.881Z,84.95
2017-11-23T05:31:32.881Z,84.44
2017-11-23T05:32:32.813Z,83.73
2017-11-23T05:33:32.882Z,83.40
2017-11-23T05:34:32.817Z,83.25
2017-11-23T05:35:32.882Z,82.93
2017-11-23T05:36:32.886Z,82.48
2017-11-23T05:37:32.856Z,82.35
2017-11-23T05:38:32.883Z,82.35
2017-11-23T05:39:32.820Z,82.21
2017-11-23T05:40:32.886Z,82.06
2017-11-23T05:41:32.821Z,82.06
2017-11-23T05:42:32.890Z,82.11
2017-11-23T05:43:32.821Z,82.00
2017-11-23T05:44:32.892Z,81.68
2017-11-23T05:45:32.829Z,81.87
2017-11-23T05:46:32.898Z,81.66
2017-11-23T05:47:32.762Z,82.08
2017-11-23T05:48:32.870Z,82.14
2017-11-23T05:49:32.820Z,82.59
2017-11-23T05:50:32.869Z,82.59
2017-11-23T05:51:32.786Z,82.75
2017-11-23T05:52:32.818Z,82.80
2017-11-23T05:53:32.787Z,82.85
2017-11-23T05:54:32.845Z,82.80
2017-11-23T05:55:32.816Z,82.59
2017-11-23T05:56:32.850Z,82.72
2017-11-23T05:57:32.761Z,82.67
2017-11-23T05:58:32.846Z,82.11
2017-11-23T05:59:32.865Z,82.51
2017-11-23T06:00:32.797Z,82.37
2017-11-23T06:01:32.781Z,82.32
2017-11-23T06:02:32.805Z,82.40
2017-11-23T06:03:32.889Z,82.59
2017-11-23T06:04:32.884Z,82.80
2017-11-23T06:05:32.852Z,82.77
2017-11-23T06:06:32.805Z,82.75
2017-11-23T06:07:32.903Z,82.51
2017-11-23T06:08:32.839Z,82.69
2017-11-23T06:09:32.837Z,82.35
2017-11-23T06:10:32.903Z,82.35
2017-11-23T06:11:32.845Z,82.00
2017-11-23T06:12:32.943Z,82.32
2017-11-23T06:13:32.904Z,82.45
2017-11-23T06:14:32.832Z,82.27
2017-11-23T06:15:32.908Z,82.48
2017-11-23T06:16:32.841Z,82.75
2017-11-23T06:17:32.907Z,82.72
2017-11-23T06:18:32.839Z,82.75
2017-11-23T06:19:32.908Z,82.37
2017-11-23T06:20:32.845Z,82.00
2017-11-23T06:21:32.912Z,81.71
2017-11-23T06:22:32.846Z,81.32
2017-11-23T06:23:32.912Z,81.24
2017-11-23T06:24:32.854Z,81.08
2017-11-23T06:25:32.846Z,81.08
2017-11-23T06:26:32.848Z,80.89
2017-11-23T06:27:32.928Z,80.71
2017-11-23T06:28:32.802Z,80.31
2017-11-23T06:29:32.867Z,80.05
2017-11-23T06:30:32.863Z,80.07
2017-11-23T06:31:32.847Z,80.13
2017-11-23T06:32:32.902Z,79.94
2017-11-23T06:33:32.821Z,79.99
2017-11-23T06:34:32.818Z,79.65
2017-11-23T06:35:32.907Z,79.47
2017-11-23T06:36:32.908Z,79.13
2017-11-23T06:37:32.843Z,78.83
2017-11-23T06:38:32.908Z,78.86
2017-11-23T06:39:32.940Z,78.86
2017-11-23T06:40:32.886Z,79.31
2017-11-23T06:41:32.854Z,79.15
2017-11-23T06:42:32.808Z,79.28
2017-11-23T06:43:32.828Z,78.39
2017-11-23T06:44:32.877Z,78.91
2017-11-23T06:45:32.792Z,79.17
2017-11-23T06:46:32.862Z,79.55
2017-11-23T06:47:32.825Z,80.31
2017-11-23T06:48:32.829Z,80.63
2017-11-23T06:49:32.910Z,81.18
2017-11-23T06:50:32.866Z,81.68
2017-11-23T06:51:32.912Z,81.87
2017-11-23T06:52:32.813Z,82.29
2017-11-23T06:53:32.917Z,82.11
2017-11-23T06:54:32.920Z,82.16
2017-11-23T06:55:32.881Z,81.58
2017-11-23T06:56:32.812Z,81.56
2017-11-23T06:57:32.886Z,81.42
2017-11-23T06:58:32.913Z,81.48
2017-11-23T06:59:32.867Z,81.18
2017-11-23T07:00:32.845Z,81.10
2017-11-23T07:01:32.806Z,81.26
2017-11-23T07:02:32.827Z,81.24
2017-11-23T07:03:32.857Z,80.94
2017-11-23T07:04:32.867Z,81.00
2017-11-23T07:05:32.895Z,81.05
2017-11-23T07:06:32.865Z,81.02
2017-11-23T07:07:32.944Z,81.02
2017-11-23T07:08:32.899Z,81.00
2017-11-23T07:09:32.938Z,80.87
2017-11-23T07:10:32.875Z,80.63
2017-11-23T07:11:32.874Z,80.57
2017-11-23T07:12:32.946Z,80.36
2017-11-23T07:13:32.873Z,80.49
2017-11-23T07:14:32.941Z,80.31
2017-11-23T07:15:32.869Z,80.26
2017-11-23T07:16:32.872Z,80.07
2017-11-23T07:17:32.828Z,80.15
2017-11-23T07:18:32.811Z,80.29
2017-11-23T07:19:32.805Z,79.94
2017-11-23T07:20:32.854Z,79.65
2017-11-23T07:21:32.889Z,79.44
2017-11-23T07:22:32.871Z,79.36
2017-11-23T07:23:32.874Z,79.49
2017-11-23T07:24:32.905Z,79.81
2017-11-23T07:25:32.925Z,79.57
2017-11-23T07:26:32.830Z,79.99
2017-11-23T07:27:32.851Z,80.13
2017-11-23T07:28:32.933Z,79.89
2017-11-23T07:29:32.916Z,80.49
2017-11-23T07:30:32.851Z,80.41
2017-11-23T07:31:32.851Z,81.10
2017-11-23T07:32:32.952Z,81.10
2017-11-23T07:33:32.834Z,81.16
2017-11-23T07:34:32.901Z,80.73
2017-11-23T07:35:32.952Z,81.08
2017-11-23T07:36:32.908Z,81.50
2017-11-23T07:37:32.957Z,81.05
2017-11-23T07:38:32.887Z,81.02
2017-11-23T07:39:32.958Z,80.57
2017-11-23T07:40:32.885Z,80.57
2017-11-23T07:41:32.956Z,80.55
2017-11-23T07:42:32.890Z,80.60
2017-11-23T07:43:32.960Z,80.47
2017-11-23T07:44:32.889Z,80.07
2017-11-23T07:45:32.959Z,79.99
2017-11-23T07:46:32.889Z,79.89
2017-11-23T07:47:32.914Z,79.71
2017-11-23T07:48:32.958Z,78.65
2017-11-23T07:49:32.958Z,79.05
2017-11-23T07:50:32.865Z,79.02
2017-11-23T07:51:32.862Z,78.65
2017-11-23T07:52:32.864Z,78.36
2017-11-23T07:53:32.962Z,78.59
2017-11-23T07:54:32.909Z,78.33
2017-11-23T07:55:32.872Z,77.59
2017-11-23T07:56:32.933Z,77.54
2017-11-23T07:57:32.835Z,77.59
2017-11-23T07:58:32.943Z,77.51
2017-11-23T07:59:33.068Z,77.67
2017-11-23T08:00:32.859Z,78.07
2017-11-23T08:01:32.865Z,77.75
2017-11-23T08:02:32.897Z,77.59
2017-11-23T08:03:32.931Z,77.57
2017-11-23T08:04:32.933Z,77.44
2017-11-23T08:05:32.821Z,77.81
2017-11-23T08:06:32.876Z,77.33
2017-11-23T08:07:32.976Z,77.44
2017-11-23T08:08:32.903Z,77.02
2017-11-23T08:09:32.976Z,76.75
2017-11-23T08:10:32.907Z,76.73
2017-11-23T08:11:32.978Z,76.91
2017-11-23T08:12:32.902Z,76.57
2017-11-23T08:13:32.977Z,76.46
2017-11-23T08:14:32.912Z,76.26
2017-11-23T08:15:32.978Z,76.02
2017-11-23T08:16:32.903Z,76.04
2017-11-23T08:17:32.977Z,76.52
2017-11-23T08:18:32.912Z,76.73
2017-11-23T08:19:32.980Z,76.54
2017-11-23T08:20:32.910Z,76.65
2017-11-23T08:21:32.982Z,76.78
2017-11-23T08:22:32.917Z,76.89
2017-11-23T08:23:32.980Z,77.02
2017-11-23T08:24:32.920Z,77.33
2017-11-23T08:25:32.985Z,77.31
2017-11-23T08:26:32.919Z,77.39
2017-11-23T08:27:32.860Z,77.02
2017-11-23T08:28:32.948Z,76.86
2017-11-23T08:29:32.977Z,76.99
2017-11-23T08:30:32.885Z,76.70
2017-11-23T08:31:32.982Z,76.60
2017-11-23T08:32:32.898Z,76.86
2017-11-23T08:33:32.952Z,76.60
2017-11-23T08:34:32.971Z,76.78
2017-11-23T08:35:32.953Z,77.09
2017-11-23T08:36:32.871Z,76.91
2017-11-23T08:37:32.924Z,76.60
2017-11-23T08:38:32.994Z,76.78
2017-11-23T08:39:32.927Z,77.02
2017-11-23T08:40:32.931Z,76.81
2017-11-23T08:41:32.994Z,76.99
2017-11-23T08:42:32.925Z,77.15
2017-11-23T08:43:32.994Z,77.07
2017-11-23T08:44:32.933Z,76.97
2017-11-23T08:45:33.026Z,77.28
2017-11-23T08:46:32.926Z,77.04
2017-11-23T08:47:32.876Z,77.23
2017-11-23T08:48:32.947Z,77.28
2017-11-23T08:49:32.975Z,77.31
2017-11-23T08:50:32.882Z,77.15
2017-11-23T08:51:32.951Z,76.89
2017-11-23T08:52:32.948Z,77.12
2017-11-23T08:53:32.964Z,76.44
2017-11-23T08:54:32.967Z,76.34
2017-11-23T08:55:32.963Z,76.39
2017-11-23T08:56:32.860Z,76.54
2017-11-23T08:57:32.967Z,76.49
2017-11-23T08:58:32.954Z,75.99
2017-11-23T08:59:32.908Z,75.92
2017-11-23T09:00:32.884Z,76.28
2017-11-23T09:01:32.992Z,75.70
2017-11-23T09:02:32.995Z,75.76
2017-11-23T09:03:32.915Z,75.76
2017-11-23T09:04:33.023Z,75.44
2017-11-23T09:05:32.920Z,75.55
2017-11-23T09:06:32.938Z,75.39
2017-11-23T09:07:32.930Z,75.10
2017-11-23T09:08:33.010Z,74.89
2017-11-23T09:09:32.934Z,75.37
2017-11-23T09:10:32.932Z,75.37
2017-11-23T09:11:33.012Z,75.62
2017-11-23T09:12:32.940Z,74.79
2017-11-23T09:13:32.922Z,75.10
2017-11-23T09:14:32.962Z,74.92
2017-11-23T09:15:32.960Z,75.02
2017-11-23T09:16:32.916Z,74.76
2017-11-23T09:17:32.950Z,74.40
2017-11-23T09:18:33.019Z,74.89
2017-11-23T09:19:32.952Z,75.15
2017-11-23T09:20:33.017Z,74.71
2017-11-23T09:21:32.951Z,74.52
2017-11-23T09:22:32.949Z,74.47
2017-11-23T09:23:33.019Z,74.16
2017-11-23T09:24:32.944Z,74.60
2017-11-23T09:25:33.023Z,74.52
2017-11-23T09:26:32.949Z,74.21
2017-11-23T09:27:32.926Z,74.13
2017-11-23T09:28:32.998Z,73.95
2017-11-23T09:29:32.963Z,74.40
2017-11-23T09:30:32.978Z,74.21
2017-11-23T09:31:32.914Z,73.71
2017-11-23T09:32:32.881Z,74.05
2017-11-23T09:33:32.893Z,74.32
2017-11-23T09:34:32.980Z,73.69
2017-11-23T09:35:32.881Z,73.32
2017-11-23T09:36:32.989Z,73.63
2017-11-23T09:37:33.033Z,73.66
2017-11-23T09:38:33.028Z,73.79
2017-11-23T09:39:32.959Z,73.71
2017-11-23T09:40:33.029Z,73.85
2017-11-23T09:41:33.034Z,73.79
2017-11-23T09:42:32.961Z,73.93
2017-11-23T09:43:33.033Z,73.97
2017-11-23T09:44:32.959Z,73.93
2017-11-23T09:45:33.034Z,73.93
2017-11-23T09:46:32.962Z,74.05
2017-11-23T09:47:32.976Z,73.89
2017-11-23T09:48:32.978Z,73.77
2017-11-23T09:49:33.021Z,73.24
2017-11-23T09:50:33.000Z,73.30
2017-11-23T09:51:32.939Z,73.08
2017-11-23T09:52:32.945Z,73.14
2017-11-23T09:53:32.981Z,73.37
2017-11-23T09:54:32.986Z,73.35
2017-11-23T09:55:32.949Z,73.22
2017-11-23T09:56:32.945Z,73.06
2017-11-23T09:57:32.970Z,73.03
2017-11-23T09:58:33.041Z,72.85
2017-11-23T09:59:32.972Z,72.83
2017-11-23T10:00:32.973Z,72.95
2017-11-23T10:01:33.045Z,72.85
2017-11-23T10:02:32.971Z,73.08
2017-11-23T10:03:33.056Z,73.22
2017-11-23T10:04:32.973Z,73.35
2017-11-23T10:05:33.044Z,73.16
2017-11-23T10:06:32.973Z,73.22
2017-11-23T10:07:32.908Z,73.30
2017-11-23T10:08:33.049Z,73.14
2017-11-23T10:09:33.016Z,73.30
2017-11-23T10:10:32.933Z,73.03
2017-11-23T10:11:32.994Z,72.09
2017-11-23T10:12:33.028Z,71.83
2017-11-23T10:13:32.932Z,71.78
2017-11-23T10:14:33.000Z,71.52
2017-11-23T10:15:32.972Z,71.21
2017-11-23T10:16:33.021Z,70.66
2017-11-23T10:17:33.011Z,70.48
2017-11-23T10:18:33.052Z,70.58
2017-11-23T10:19:32.976Z,70.32
2017-11-23T10:20:33.051Z,69.96
2017-11-23T10:21:32.927Z,70.32
2017-11-23T10:22:33.110Z,70.11
2017-11-23T10:23:33.023Z,69.38
2017-11-23T10:24:32.932Z,69.59
2017-11-23T10:25:33.007Z,69.36
2017-11-23T10:26:32.937Z,69.67
2017-11-23T10:27:32.955Z,69.54
2017-11-23T10:28:32.972Z,69.28
2017-11-23T10:29:33.043Z,69.23
2017-11-23T10:30:32.942Z,69.07
2017-11-23T10:31:33.044Z,68.45
2017-11-23T10:32:33.059Z,68.45
2017-11-23T10:33:32.967Z,68.79
2017-11-23T10:34:33.027Z,68.71
2017-11-23T10:35:33.027Z,68.63
2017-11-23T10:36:33.024Z,68.47
2017-11-23T10:37:33.062Z,68.47
2017-11-23T10:38:33.011Z,68.40
2017-11-23T10:39:32.949Z,68.47
2017-11-23T10:40:33.054Z,68.14
2017-11-23T10:41:33.064Z,68.22
2017-11-23T10:42:33.034Z,68.50
2017-11-23T10:43:33.062Z,67.80
2017-11-23T10:44:32.977Z,68.11
2017-11-23T10:45:33.062Z,67.83
2017-11-23T10:46:33.066Z,67.62
2017-11-23T10:47:33.004Z,67.60
2017-11-23T10:48:33.007Z,67.18
2017-11-23T10:49:32.973Z,67.41
2017-11-23T10:50:33.033Z,67.08
2017-11-23T10:51:32.985Z,66.81
2017-11-23T10:52:33.009Z,67.25
2017-11-23T10:53:33.054Z,66.92
2017-11-23T10:54:33.057Z,67.00
2017-11-23T10:55:32.978Z,66.69
2017-11-23T10:56:32.982Z,66.77
2017-11-23T10:57:32.963Z,66.79
2017-11-23T10:58:33.000Z,66.53
2017-11-23T10:59:33.008Z,66.71
2017-11-23T11:00:33.079Z,66.53
2017-11-23T11:01:33.003Z,66.17
2017-11-23T11:02:33.078Z,66.09
2017-11-23T11:03:33.057Z,66.56
2017-11-23T11:04:33.098Z,65.91
2017-11-23T11:05:33.014Z,66.30
2017-11-23T11:06:33.078Z,66.27
2017-11-23T11:07:33.013Z,65.01
2017-11-23T11:08:33.047Z,64.54
2017-11-23T11:09:32.963Z,64.95
2017-11-23T11:10:33.076Z,64.78
2017-11-23T11:11:32.993Z,64.49
2017-11-23T11:12:33.028Z,62.99
2017-11-23T11:13:32.991Z,62.27
2017-11-23T11:14:33.024Z,62.14
2017-11-23T11:15:33.091Z,62.25
2017-11-23T11:16:33.031Z,62.58
2017-11-23T11:17:33.084Z,62.30
2017-11-23T11:18:33.026Z,62.35
2017-11-23T11:19:32.955Z,61.76
2017-11-23T11:20:32.991Z,61.35
2017-11-23T11:21:32.973Z,62.22
2017-11-23T11:22:33.017Z,61.43
2017-11-23T11:23:32.944Z,61.33
2017-11-23T11:24:33.071Z,61.17
2017-11-23T11:25:32.964Z,61.38
2017-11-23T11:26:33.042Z,61.06
2017-11-23T11:27:32.945Z,61.20
2017-11-23T11:28:32.982Z,61.43
2017-11-23T11:29:33.054Z,61.69
2017-11-23T11:30:32.963Z,62.04
2017-11-23T11:31:33.055Z,62.79
2017-11-23T11:32:32.981Z,63.33
2017-11-23T11:33:32.984Z,63.66
2017-11-23T11:34:32.986Z,64.42
2017-11-23T11:35:33.004Z,64.05
2017-11-23T11:36:33.055Z,64.38
2017-11-23T11:37:33.027Z,64.70
2017-11-23T11:38:33.105Z,65.26
2017-11-23T11:39:33.033Z,65.55
2017-11-23T11:40:32.986Z,65.78
2017-11-23T11:41:33.034Z,66.20
2017-11-23T11:42:33.124Z,65.86
2017-11-23T11:43:33.034Z,65.39
2017-11-23T11:44:33.109Z,65.96
2017-11-23T11:45:33.034Z,66.01
2017-11-23T11:46:33.103Z,65.81
2017-11-23T11:47:33.039Z,65.55
2017-11-23T11:48:33.105Z,64.75
2017-11-23T11:49:33.035Z,64.78
2017-11-23T11:50:33.105Z,64.31
2017-11-23T11:51:33.058Z,64.57
2017-11-23T11:52:33.111Z,63.64
2017-11-23T11:53:33.038Z,62.99
2017-11-23T11:54:33.110Z,62.77
2017-11-23T11:55:33.038Z,62.50
2017-11-23T11:56:33.111Z,62.46
2017-11-23T11:57:33.042Z,62.56
2017-11-23T11:58:33.112Z,61.63
2017-11-23T11:59:33.113Z,62.53
2017-11-23T12:00:33.045Z,63.92
2017-11-23T12:01:33.112Z,63.95
2017-11-23T12:02:33.044Z,64.38
2017-11-23T12:03:33.114Z,64.59
2017-11-23T12:04:33.042Z,64.29
2017-11-23T12:05:33.115Z,63.85
2017-11-23T12:06:33.043Z,64.02
2017-11-23T12:08:33.118Z,64.31
2017-11-23T12:09:33.074Z,64.10
2017-11-23T12:10:33.121Z,64.21
2017-11-23T12:11:33.052Z,65.14
2017-11-23T12:12:33.121Z,65.94
2017-11-23T12:13:33.052Z,66.27
2017-11-23T12:14:33.124Z,66.53
2017-11-23T12:15:33.055Z,66.69
2017-11-23T12:16:33.123Z,66.56
2017-11-23T12:17:33.054Z,66.71
2017-11-23T12:18:33.051Z,67.00
2017-11-23T12:19:32.990Z,66.87
2017-11-23T12:20:33.008Z,67.49
2017-11-23T12:21:32.985Z,67.39
2017-11-23T12:22:33.052Z,67.60
2017-11-23T12:23:32.979Z,67.31
2017-11-23T12:24:32.986Z,67.93
2017-11-23T12:25:32.983Z,67.93
2017-11-23T12:26:33.086Z,67.93
2017-11-23T12:27:33.090Z,68.14
2017-11-23T12:28:33.071Z,67.93
2017-11-23T12:29:33.070Z,68.19
2017-11-23T12:30:33.012Z,68.19
2017-11-23T12:31:33.014Z,68.19
2017-11-23T12:32:32.955Z,67.93
2017-11-23T12:33:33.071Z,67.85
2017-11-23T12:34:33.019Z,68.16
2017-11-23T12:35:33.062Z,68.58
2017-11-23T12:36:33.063Z,69.10
2017-11-23T12:37:33.089Z,68.99
2017-11-23T12:38:33.015Z,68.74
2017-11-23T12:39:33.049Z,69.23
2017-11-23T12:40:33.010Z,68.53
2017-11-23T12:41:33.106Z,68.71
2017-11-23T12:42:33.081Z,68.81
2017-11-23T12:43:33.124Z,68.71
2017-11-23T12:44:33.105Z,68.84
2017-11-23T12:45:33.019Z,69.36
2017-11-23T12:46:33.083Z,68.74
2017-11-23T12:47:33.043Z,68.97
2017-11-23T12:48:33.132Z,69.34
2017-11-23T12:49:33.106Z,69.12
2017-11-23T12:50:33.128Z,69.38
2017-11-23T12:51:33.042Z,69.77
2017-11-23T12:52:33.020Z,68.71
2017-11-23T12:53:33.047Z,68.97